VISIB

Not for real navigation. The accuracy of this data is not assured See disclaimer for more information



ICAO NAME COUNTRY WIND Kt GUST Kt VIS m TEMP/DEW C BARO METAR
LIPS Treviso / Istrana Italy 0 0 50 13/12 29.88 LIPS 160555Z /////KT 0050 FG BKN001 13/12 Q1012 RMK BKN VIS MIN 0050 WIND THR26 23002KT WIND THR08 2
DXSK Sokode Togo 0 0 100 23/23 29.92 DXSK 160600Z 00000KT 0100 FG BKN003 23/23 Q////
LIPH Treviso / S. Angelo Italy 1 0 100 12/12 29.94 LIPH 160620Z VRB01KT 0100 R07/0350V0600U FG NSC 12/12 Q1014
LIBV Gioia Del Colle Italy 5 0 100 18/18 30.00 LIBV 160555Z 18005KT 0100 R32L//// R14R//// FG VV001 18/18 Q1016 RMK VIS MIN 0100 WIND THR32 18005KT
LSMM 0 0 150 5/5 30.09 LSMM 160620Z 00000KT 0150 R10/0275N R28/0250N FG VV001 05/05 Q1019 RMK RED

Show more